Atlantic Mine, Michigan
Current Conditions -  °F | °C
As of 8:01 PM on Thursday 30 Oct 2014 (Local Time) from KCMX Reporting Station
Light Rain Light Rain  
Wind Chill: 27°   Ceiling: 800
Heat Index: 36°   Visibility: 6mi
Dew Point: 32°   Wind: 15mph
Humidity: 86%   Direction: 330°NNW
Pressure: 29.99"   Gusts: 25mph
Location:  47.1°N, 88.63°W
Report Text: KCMX 310001Z AUTO 33013G22KT 6SM -RA BR BKN008 OVC012 02/00 A2999 RMK AO2 P0001 T00220000
Loading
Personal Weather Stations






























Interactive Weather Map
Tropical Storm Tracking
New forecast layout! Learn more

10-Day Weather Forecast

Advertisements
Track Severe Weather on mobile